createdAt,value
2018-02-24T00:00:26.592Z,1.90
2018-02-24T00:02:55.583Z,1.90
2018-02-24T00:05:24.148Z,1.90
2018-02-24T00:07:53.144Z,1.90
2018-02-24T00:10:22.217Z,1.80
2018-02-24T00:12:51.596Z,1.80
2018-02-24T00:15:21.332Z,1.80
2018-02-24T00:17:50.597Z,1.80
2018-02-24T00:20:20.909Z,1.80
2018-02-24T00:25:18.588Z,1.70
2018-02-24T00:27:47.970Z,1.60
2018-02-24T00:30:16.191Z,1.70
2018-02-24T00:32:44.820Z,1.70
2018-02-24T00:35:14.468Z,1.70
2018-02-24T00:37:44.217Z,1.70
2018-02-24T00:40:12.472Z,1.60
2018-02-24T00:42:40.872Z,1.60
2018-02-24T00:45:09.116Z,1.60
2018-02-24T00:47:37.340Z,1.60
2018-02-24T00:50:05.929Z,1.60
2018-02-24T00:52:34.925Z,1.60
2018-02-24T00:55:03.912Z,1.60
2018-02-24T00:57:33.071Z,1.50
2018-02-24T01:00:02.074Z,1.50
2018-02-24T01:02:30.304Z,1.50
2018-02-24T01:04:58.716Z,1.50
2018-02-24T01:07:26.944Z,1.40
2018-02-24T01:09:55.936Z,1.50
2018-02-24T01:12:25.037Z,1.40
2018-02-24T01:14:54.768Z,1.50
2018-02-24T01:17:24.157Z,1.50
2018-02-24T01:19:53.021Z,1.50
2018-02-24T01:22:22.385Z,1.50
2018-02-24T01:27:21.204Z,1.40
2018-02-24T01:29:50.567Z,1.30
2018-02-24T01:32:19.933Z,1.30
2018-02-24T01:34:49.932Z,1.30
2018-02-24T01:37:18.929Z,1.30
2018-02-24T01:39:47.927Z,1.40
2018-02-24T01:42:16.463Z,1.40
2018-02-24T01:47:14.168Z,1.40
2018-02-24T01:49:43.024Z,1.40
2018-02-24T01:52:12.024Z,1.40
2018-02-24T01:54:40.269Z,1.30
2018-02-24T01:57:09.109Z,1.20
2018-02-24T01:59:37.324Z,1.30
2018-02-24T02:02:06.687Z,1.30
2018-02-24T02:04:35.317Z,1.30
2018-02-24T02:07:04.304Z,1.30
2018-02-24T02:09:32.537Z,1.30
2018-02-24T02:14:30.784Z,1.30
2018-02-24T02:16:59.008Z,1.30
2018-02-24T02:19:29.728Z,1.30
2018-02-24T02:21:58.208Z,1.20
2018-02-24T02:24:27.199Z,1.30
2018-02-24T02:26:55.804Z,1.30
2018-02-24T02:31:53.488Z,1.20
2018-02-24T02:34:22.472Z,1.20
2018-02-24T02:41:50.494Z,1.10
2018-02-24T02:44:18.729Z,1.10
2018-02-24T02:46:46.956Z,1.10
2018-02-24T02:49:17.664Z,1.00
2018-02-24T02:51:46.664Z,1.10
2018-02-24T02:54:15.300Z,1.00
2018-02-24T02:56:43.689Z,1.00
2018-02-24T02:59:12.704Z,0.90
2018-02-24T03:01:41.337Z,0.90
2018-02-24T03:04:10.254Z,0.80
2018-02-24T03:06:38.908Z,0.80
2018-02-24T03:09:07.127Z,0.80
2018-02-24T03:11:39.019Z,0.80
2018-02-24T03:14:07.236Z,0.80
2018-02-24T03:16:35.469Z,0.80
2018-02-24T03:21:38.133Z,0.90
2018-02-24T03:24:06.696Z,0.80
2018-02-24T03:26:34.944Z,0.80
2018-02-24T03:29:05.741Z,0.80
2018-02-24T03:34:04.190Z,0.80
2018-02-24T03:36:33.521Z,0.80
2018-02-24T03:39:03.256Z,0.80
2018-02-24T03:41:32.634Z,0.70
2018-02-24T03:46:30.613Z,0.70
2018-02-24T03:48:59.603Z,0.70
2018-02-24T03:51:28.939Z,0.70
2018-02-24T03:53:57.156Z,0.70
2018-02-24T03:58:56.033Z,0.70
2018-02-24T04:01:25.398Z,0.60
2018-02-24T04:06:23.999Z,0.60
2018-02-24T04:08:53.728Z,0.60
2018-02-24T04:11:22.353Z,0.60
2018-02-24T04:16:20.368Z,0.50
2018-02-24T04:18:49.722Z,0.60
2018-02-24T04:21:18.388Z,0.50
2018-02-24T04:23:46.621Z,0.50
2018-02-24T04:26:18.600Z,0.60
2018-02-24T04:28:48.319Z,0.60
2018-02-24T04:31:17.321Z,0.60
2018-02-24T04:33:45.559Z,0.60
2018-02-24T04:36:14.216Z,0.60
2018-02-24T04:41:11.917Z,0.60
2018-02-24T04:43:41.504Z,0.60
2018-02-24T04:46:09.746Z,0.50
2018-02-24T04:48:37.964Z,0.50
2018-02-24T04:53:42.676Z,0.50
2018-02-24T04:56:12.427Z,0.50
2018-02-24T04:58:40.676Z,0.50
2018-02-24T05:01:10.057Z,0.50
2018-02-24T05:03:38.285Z,0.60
2018-02-24T05:06:06.511Z,0.50
2018-02-24T05:08:35.344Z,0.50
2018-02-24T05:11:04.703Z,0.50
2018-02-24T05:13:32.940Z,0.50
2018-02-24T05:16:01.480Z,0.50
2018-02-24T05:20:59.310Z,0.50
2018-02-24T05:23:28.656Z,0.60
2018-02-24T05:25:57.275Z,0.60
2018-02-24T05:28:25.892Z,0.50
2018-02-24T05:33:25.548Z,0.50
2018-02-24T05:38:24.692Z,0.50
2018-02-24T05:40:52.915Z,0.50
2018-02-24T05:45:50.752Z,0.50
2018-02-24T05:48:18.975Z,0.50
2018-02-24T05:50:47.199Z,0.40
2018-02-24T05:53:17.191Z,0.40
2018-02-24T05:55:46.552Z,0.40
2018-02-24T06:10:44.216Z,0.40
2018-02-24T06:13:13.960Z,0.40
2018-02-24T06:15:42.664Z,0.40
2018-02-24T06:20:42.149Z,0.40
2018-02-24T06:23:11.880Z,0.30
2018-02-24T06:25:40.116Z,0.30
2018-02-24T06:28:08.349Z,0.30
2018-02-24T06:30:38.616Z,0.30
2018-02-24T06:38:08.149Z,0.30
2018-02-24T06:40:36.773Z,0.40
2018-02-24T06:43:05.001Z,0.40
2018-02-24T06:45:33.549Z,0.40
2018-02-24T06:48:02.916Z,0.40
2018-02-24T06:50:31.135Z,0.40
2018-02-24T06:53:00.667Z,0.50
2018-02-24T06:55:29.308Z,0.40
2018-02-24T06:57:58.313Z,0.50
2018-02-24T07:00:27.990Z,0.50
2018-02-24T07:02:57.729Z,0.50
2018-02-24T07:05:25.964Z,0.50
2018-02-24T07:07:54.695Z,0.50
2018-02-24T07:10:22.924Z,0.50
2018-02-24T07:12:52.285Z,0.60
2018-02-24T07:15:21.173Z,0.70
2018-02-24T07:20:18.852Z,0.80
2018-02-24T07:22:47.613Z,0.90
2018-02-24T07:25:16.605Z,1.00
2018-02-24T07:27:44.837Z,1.10
2018-02-24T07:30:13.229Z,1.30
2018-02-24T07:32:43.444Z,1.40
2018-02-24T07:35:11.680Z,1.50
2018-02-24T07:37:42.357Z,1.70
2018-02-24T07:40:10.628Z,1.90
2018-02-24T07:42:39.611Z,2.00
2018-02-24T07:45:08.568Z,2.10
2018-02-24T07:47:37.560Z,2.20
2018-02-24T07:50:05.792Z,2.30
2018-02-24T07:52:35.428Z,2.40
2018-02-24T07:55:04.052Z,2.50
2018-02-24T07:57:32.280Z,2.60
2018-02-24T08:00:01.717Z,2.70
2018-02-24T08:02:29.960Z,2.90
2018-02-24T08:04:58.587Z,3.00
2018-02-24T08:07:27.084Z,3.10
2018-02-24T08:09:56.816Z,3.20
2018-02-24T08:14:55.879Z,3.50
2018-02-24T08:17:24.876Z,3.70
2018-02-24T08:19:53.102Z,3.80
2018-02-24T08:24:52.133Z,4.30
2018-02-24T08:27:20.359Z,4.60
2018-02-24T08:34:49.232Z,6.40
2018-02-24T08:37:18.152Z,7.50
2018-02-24T08:39:46.385Z,8.60
2018-02-24T08:42:16.120Z,9.80
2018-02-24T08:44:45.356Z,11.10
2018-02-24T08:47:14.370Z,12.30
2018-02-24T08:49:42.620Z,13.40
2018-02-24T08:52:11.094Z,14.30
2018-02-24T08:54:39.376Z,15.00
2018-02-24T08:59:38.427Z,16.00
2018-02-24T09:02:07.056Z,16.20
2018-02-24T09:04:35.289Z,16.70
2018-02-24T09:07:04.531Z,16.90
2018-02-24T09:09:34.271Z,17.10
2018-02-24T09:12:02.500Z,17.50
2018-02-24T09:14:32.543Z,17.90
2018-02-24T09:17:01.544Z,18.20
2018-02-24T09:19:29.785Z,18.40
2018-02-24T09:21:59.108Z,18.50
2018-02-24T09:24:28.124Z,18.90
2018-02-24T09:26:56.355Z,19.20
2018-02-24T09:29:24.729Z,19.20
2018-02-24T09:31:52.960Z,19.70
2018-02-24T09:34:21.193Z,20.80
2018-02-24T09:36:52.592Z,21.40
2018-02-24T09:39:21.592Z,21.70
2018-02-24T09:41:49.828Z,21.90
2018-02-24T09:44:18.988Z,22.00
2018-02-24T09:46:47.985Z,22.20
2018-02-24T09:49:16.222Z,21.90
2018-02-24T09:51:46.120Z,21.70
2018-02-24T09:54:14.369Z,21.80
2018-02-24T09:56:43.749Z,21.90
2018-02-24T09:59:12.345Z,22.20
2018-02-24T10:01:40.596Z,22.40
2018-02-24T10:04:08.886Z,22.40
2018-02-24T10:06:38.056Z,22.50
2018-02-24T10:09:07.061Z,22.90
2018-02-24T10:11:36.052Z,23.30
2018-02-24T10:14:05.216Z,24.10
2018-02-24T10:16:34.951Z,24.40
2018-02-24T10:21:33.088Z,25.10
2018-02-24T10:24:02.828Z,25.10
2018-02-24T10:26:31.828Z,25.20
2018-02-24T10:29:01.391Z,25.00
2018-02-24T10:31:29.632Z,24.40
2018-02-24T10:33:57.909Z,24.00
2018-02-24T10:36:27.515Z,23.70
2018-02-24T10:41:26.485Z,24.30
2018-02-24T10:43:55.899Z,24.40
2018-02-24T10:46:25.640Z,24.20
2018-02-24T10:51:29.834Z,23.20
2018-02-24T10:53:58.073Z,23.70
2018-02-24T10:56:27.254Z,24.10
2018-02-24T10:58:56.276Z,24.40
2018-02-24T11:01:24.512Z,24.60
2018-02-24T11:03:53.637Z,24.90
2018-02-24T11:06:22.635Z,25.50
2018-02-24T11:08:50.868Z,26.00
2018-02-24T11:11:20.621Z,26.20
2018-02-24T11:13:49.559Z,26.80
2018-02-24T11:16:18.176Z,27.10
2018-02-24T11:18:47.391Z,26.90
2018-02-24T11:21:16.401Z,26.80
2018-02-24T11:23:45.420Z,26.90
2018-02-24T11:26:14.664Z,27.30
2018-02-24T11:28:43.680Z,28.10
2018-02-24T11:31:12.668Z,28.00
2018-02-24T11:33:42.216Z,27.70
2018-02-24T11:36:11.960Z,27.90
2018-02-24T11:38:40.196Z,28.10
2018-02-24T11:41:10.224Z,28.30
2018-02-24T11:43:38.462Z,28.90
2018-02-24T11:46:06.694Z,28.70
2018-02-24T11:48:36.639Z,28.50
2018-02-24T11:51:06.368Z,28.50
2018-02-24T11:53:34.989Z,28.10
2018-02-24T11:56:04.868Z,28.30
2018-02-24T11:58:33.108Z,28.40
2018-02-24T12:01:01.348Z,28.80
2018-02-24T12:03:30.051Z,29.00
2018-02-24T12:08:27.786Z,29.20
2018-02-24T12:10:57.247Z,28.80
2018-02-24T12:15:55.694Z,28.00
2018-02-24T12:18:24.151Z,27.60
2018-02-24T12:20:52.764Z,27.70
2018-02-24T12:25:50.981Z,27.20
2018-02-24T12:28:19.200Z,27.00
2018-02-24T12:30:48.581Z,27.00
2018-02-24T12:33:17.868Z,27.10
2018-02-24T12:35:46.501Z,27.30
2018-02-24T12:38:14.732Z,27.40
2018-02-24T12:40:43.688Z,27.50
2018-02-24T12:43:13.456Z,27.20
2018-02-24T12:45:41.692Z,27.00
2018-02-24T12:48:10.228Z,26.80
2018-02-24T12:50:39.221Z,26.60
2018-02-24T12:53:07.448Z,26.10
2018-02-24T12:55:37.556Z,25.70
2018-02-24T12:58:05.776Z,26.20
2018-02-24T13:00:34.017Z,26.40
2018-02-24T13:03:02.548Z,26.60
2018-02-24T13:05:30.789Z,27.00
2018-02-24T13:08:00.179Z,27.10
2018-02-24T13:10:28.755Z,26.20
2018-02-24T13:12:56.968Z,26.00
2018-02-24T13:15:25.197Z,26.20
2018-02-24T13:17:53.612Z,26.30
2018-02-24T13:20:23.340Z,26.40
2018-02-24T13:22:51.569Z,26.00
2018-02-24T13:25:24.690Z,25.60
2018-02-24T13:27:53.681Z,24.50
2018-02-24T13:30:21.900Z,23.20
2018-02-24T13:32:51.045Z,22.00
2018-02-24T13:35:20.024Z,20.90
2018-02-24T13:37:48.263Z,20.50
2018-02-24T13:42:47.736Z,19.40
2018-02-24T13:45:16.590Z,18.80
2018-02-24T13:47:45.899Z,18.70
2018-02-24T13:50:14.121Z,18.40
2018-02-24T13:52:43.107Z,18.30
2018-02-24T13:55:12.679Z,18.30
2018-02-24T13:57:42.345Z,18.10
2018-02-24T14:00:10.564Z,17.80
2018-02-24T14:02:40.632Z,17.30
2018-02-24T14:05:08.907Z,16.80
2018-02-24T14:07:38.640Z,16.00
2018-02-24T14:10:07.869Z,15.10
2018-02-24T14:12:36.856Z,14.40
2018-02-24T14:17:35.636Z,12.90
2018-02-24T14:20:05.368Z,12.30
2018-02-24T14:22:33.996Z,11.80
2018-02-24T14:25:04.536Z,11.40
2018-02-24T14:27:33.535Z,11.00
2018-02-24T14:30:01.776Z,10.60
2018-02-24T14:32:31.005Z,10.40
2018-02-24T14:35:00.033Z,10.10
2018-02-24T14:37:28.960Z,9.80
2018-02-24T14:39:57.446Z,9.60
2018-02-24T14:42:26.432Z,9.40
2018-02-24T14:47:24.988Z,8.90
2018-02-24T14:49:53.652Z,8.70
2018-02-24T14:54:54.812Z,8.40
2018-02-24T14:59:53.677Z,8.20
2018-02-24T16:19:57.204Z,5.80
2018-02-24T16:29:55.181Z,5.40
2018-02-24T16:32:24.204Z,5.40
2018-02-24T16:34:53.196Z,5.30
2018-02-24T16:37:22.193Z,5.20
2018-02-24T16:39:50.453Z,5.10
2018-02-24T16:42:18.688Z,5.10
2018-02-24T16:44:47.692Z,5.10
2018-02-24T16:49:46.172Z,5.00
2018-02-24T16:52:14.394Z,4.90
2018-02-24T16:54:43.040Z,4.90
2018-02-24T16:57:11.260Z,5.00
2018-02-24T16:59:39.484Z,4.90
2018-02-24T17:02:08.500Z,4.90
2018-02-24T17:07:06.592Z,4.90
2018-02-24T17:09:35.258Z,4.70
2018-02-24T17:12:03.509Z,4.80
2018-02-24T17:14:31.752Z,4.70
2018-02-24T17:24:28.637Z,4.70
2018-02-24T17:26:57.657Z,4.60
2018-02-24T17:29:25.875Z,4.60
2018-02-24T17:31:54.122Z,4.50
2018-02-24T17:36:52.628Z,4.40
2018-02-24T17:41:50.291Z,4.40
2018-02-24T17:46:48.773Z,4.30
2018-02-24T17:51:46.885Z,4.40
2018-02-24T17:54:15.492Z,4.30
2018-02-24T17:56:44.483Z,4.30
2018-02-24T17:59:13.128Z,4.30
2018-02-24T18:01:41.341Z,4.30
2018-02-24T18:04:09.568Z,4.20
2018-02-24T18:09:07.676Z,4.20
2018-02-24T18:11:37.212Z,4.20
2018-02-24T18:14:05.820Z,4.10
2018-02-24T18:16:34.824Z,4.20
2018-02-24T18:19:03.108Z,4.20
2018-02-24T18:24:00.792Z,4.10
2018-02-24T18:26:29.501Z,4.10
2018-02-24T18:28:58.500Z,4.10
2018-02-24T18:31:26.728Z,4.10
2018-02-24T18:36:25.644Z,4.00
2018-02-24T18:38:53.917Z,4.00
2018-02-24T18:41:22.157Z,4.00
2018-02-24T18:43:51.904Z,4.00
2018-02-24T18:46:20.120Z,4.00
2018-02-24T18:48:48.364Z,4.00
2018-02-24T18:51:17.391Z,4.00
2018-02-24T18:53:45.997Z,4.00
2018-02-24T18:56:14.212Z,3.90
2018-02-24T18:58:43.976Z,3.90
2018-02-24T19:01:12.191Z,3.90
2018-02-24T19:03:40.408Z,3.90
2018-02-24T19:06:08.652Z,3.80
2018-02-24T19:08:36.876Z,3.80
2018-02-24T19:11:05.141Z,3.80
2018-02-24T19:16:02.878Z,3.70
2018-02-24T19:18:31.110Z,3.70
2018-02-24T19:20:59.354Z,3.60
2018-02-24T19:25:57.072Z,3.60
2018-02-24T19:28:26.052Z,3.60
2018-02-24T19:30:55.443Z,3.60
2018-02-24T19:33:23.660Z,3.50
2018-02-24T19:38:21.748Z,3.40
2018-02-24T19:40:49.960Z,3.50
2018-02-24T19:43:18.185Z,3.40
2018-02-24T19:45:47.965Z,3.50
2018-02-24T19:48:16.185Z,3.50
2018-02-24T19:50:44.399Z,3.40
2018-02-24T19:53:12.656Z,3.40
2018-02-24T19:58:10.742Z,3.30
2018-02-24T20:00:39.780Z,3.30
2018-02-24T20:03:08.760Z,3.30
2018-02-24T20:23:04.536Z,3.10
2018-02-24T20:25:33.928Z,3.10
2018-02-24T20:28:02.169Z,3.10
2018-02-24T20:30:31.970Z,3.10
2018-02-24T20:33:00.181Z,3.00
2018-02-24T20:35:28.426Z,3.10
2018-02-24T20:40:26.317Z,3.00
2018-02-24T20:42:54.532Z,2.90
2018-02-24T20:47:52.632Z,2.90
2018-02-24T20:50:20.852Z,2.80
2018-02-24T20:52:49.129Z,2.80
2018-02-24T20:57:47.212Z,2.70
2018-02-24T21:00:16.240Z,2.80
2018-02-24T21:02:45.224Z,2.80
2018-02-24T21:05:13.443Z,2.80
2018-02-24T21:07:42.936Z,2.80
2018-02-24T21:12:40.597Z,2.70
2018-02-24T21:20:08.521Z,2.60
2018-02-24T21:22:37.212Z,2.60
2018-02-24T21:27:36.393Z,2.60
2018-02-24T21:32:34.749Z,2.60
2018-02-24T21:35:03.006Z,2.50
2018-02-24T21:37:31.745Z,2.50
2018-02-24T21:40:01.115Z,2.50
2018-02-24T21:42:29.348Z,2.50
2018-02-24T21:47:29.244Z,2.50
2018-02-24T21:49:58.236Z,2.50
2018-02-24T21:52:26.664Z,2.50
2018-02-24T21:54:55.640Z,2.50
2018-02-24T21:57:23.857Z,2.40
2018-02-24T21:59:52.640Z,2.40
2018-02-24T22:04:52.765Z,2.40
2018-02-24T22:07:21.141Z,2.40
2018-02-24T22:09:49.356Z,2.30
2018-02-24T22:14:47.964Z,2.40
2018-02-24T22:17:19.960Z,2.30
2018-02-24T22:19:49.259Z,2.30
2018-02-24T22:22:18.996Z,2.20
2018-02-24T22:24:47.994Z,2.30
2018-02-24T22:27:16.644Z,2.20
2018-02-24T22:29:45.248Z,2.20
2018-02-24T22:32:13.468Z,2.20
2018-02-24T22:34:42.656Z,2.10
2018-02-24T22:37:11.640Z,2.10
2018-02-24T22:39:39.848Z,2.10
2018-02-24T22:42:08.479Z,2.20
2018-02-24T22:47:06.141Z,2.10
2018-02-24T22:49:34.425Z,2.10
2018-02-24T22:52:04.152Z,2.10
2018-02-24T22:54:33.160Z,2.00
2018-02-24T22:57:01.410Z,2.00
2018-02-24T22:59:30.404Z,2.00
2018-02-24T23:01:59.034Z,2.10
2018-02-24T23:04:27.287Z,2.00
2018-02-24T23:06:55.500Z,2.00
2018-02-24T23:09:25.223Z,2.00
2018-02-24T23:14:23.325Z,1.90
2018-02-24T23:16:52.305Z,1.90
2018-02-24T23:21:51.724Z,1.80
2018-02-24T23:24:19.937Z,1.80
2018-02-24T23:26:48.229Z,1.80
2018-02-24T23:29:16.452Z,1.70
2018-02-24T23:31:45.076Z,1.70
2018-02-24T23:36:42.776Z,1.80
2018-02-24T23:39:10.987Z,1.80
2018-02-24T23:41:39.241Z,1.70
2018-02-24T23:44:07.459Z,1.70
2018-02-24T23:46:36.813Z,1.60
2018-02-24T23:49:05.064Z,1.70
2018-02-24T23:51:33.285Z,1.70
2018-02-24T23:54:01.517Z,1.70
2018-02-24T23:56:30.500Z,1.70
2018-02-24T23:58:59.871Z,1.70
